createdAt,value
2019-02-06T05:00:19.533Z,-4.30
2019-02-06T05:02:42.041Z,-4.30
2019-02-06T05:05:04.843Z,-4.20
2019-02-06T05:07:27.337Z,-4.20
2019-02-06T05:09:49.849Z,-4.20
2019-02-06T05:12:12.356Z,-4.30
2019-02-06T05:14:34.854Z,-4.30
2019-02-06T06:01:11.438Z,-4.30
2019-02-06T06:03:46.504Z,-4.30
2019-02-06T06:06:21.611Z,-4.30
2019-02-06T06:08:44.031Z,-4.30
2019-02-06T06:11:06.541Z,-4.30
2019-02-06T06:13:29.048Z,-4.30
2019-02-06T07:00:16.951Z,-4.00
2019-02-06T07:02:39.658Z,-3.90
2019-02-06T07:05:02.086Z,-3.90
2019-02-06T07:07:24.519Z,-3.80
2019-02-06T07:09:47.010Z,-3.70
2019-02-06T07:12:09.413Z,-3.60
2019-02-06T07:14:31.932Z,-3.50
2019-02-06T08:02:26.406Z,4.30
2019-02-06T08:04:48.935Z,7.50
2019-02-06T08:07:11.458Z,9.00
2019-02-06T08:09:33.962Z,8.10
2019-02-06T08:11:56.467Z,7.00
2019-02-06T08:14:18.878Z,6.10
2019-02-06T09:02:30.514Z,5.80
2019-02-06T09:04:55.821Z,7.50
2019-02-06T09:07:17.258Z,7.90
2019-02-06T09:09:39.811Z,10.80
2019-02-06T09:12:02.317Z,14.60
2019-02-06T09:14:24.810Z,17.30
2019-02-06T10:00:57.640Z,24.10
2019-02-06T10:03:20.353Z,24.40
2019-02-06T10:05:42.766Z,25.00
2019-02-06T10:08:05.497Z,25.40
2019-02-06T10:10:47.490Z,25.20
2019-02-06T10:13:22.906Z,25.60
2019-02-06T11:01:21.331Z,26.40
2019-02-06T11:03:43.869Z,26.70
2019-02-06T11:06:06.366Z,26.50
2019-02-06T11:08:28.796Z,26.10
2019-02-06T11:10:51.817Z,26.10
2019-02-06T11:13:14.214Z,25.90
2019-02-06T12:02:24.082Z,23.20
2019-02-06T12:04:46.507Z,23.60
2019-02-06T12:07:09.044Z,24.10
2019-02-06T12:09:31.857Z,24.50
2019-02-06T12:11:54.368Z,24.80
2019-02-06T12:14:16.988Z,24.70
2019-02-06T13:01:25.231Z,19.30
2019-02-06T13:04:00.347Z,19.00
2019-02-06T13:06:35.271Z,19.20
2019-02-06T13:09:11.255Z,19.40
2019-02-06T13:11:46.342Z,19.90
2019-02-06T13:14:21.340Z,20.30
2019-02-06T14:00:29.007Z,18.90
2019-02-06T14:02:51.519Z,18.80
2019-02-06T14:05:15.902Z,18.70
2019-02-06T14:07:38.774Z,18.50
2019-02-06T14:10:01.484Z,18.30
2019-02-06T14:12:24.329Z,18.10
2019-02-06T14:14:46.823Z,17.80
2019-02-06T15:01:19.046Z,9.80
2019-02-06T15:04:04.319Z,9.40
2019-02-06T15:06:59.904Z,9.10
2019-02-06T15:10:13.230Z,8.80
2019-02-06T15:12:48.642Z,8.50
2019-02-06T16:03:25.417Z,5.40
2019-02-06T16:06:23.486Z,5.30
2019-02-06T16:09:17.786Z,5.10
2019-02-06T16:12:36.986Z,4.90
2019-02-06T17:02:18.586Z,2.50
2019-02-06T17:05:30.978Z,2.30
2019-02-06T17:08:25.726Z,2.30
2019-02-06T17:11:00.567Z,2.20
2019-02-06T17:13:36.775Z,2.10
2019-02-06T18:17:35.578Z,1.00
2019-02-06T18:19:58.103Z,0.90
2019-02-06T18:22:22.547Z,0.90
2019-02-06T18:24:44.955Z,0.90
2019-02-06T18:27:08.879Z,0.90
2019-02-06T18:29:31.397Z,0.80
2019-02-06T19:01:26.547Z,0.40
2019-02-06T19:03:49.079Z,0.30
2019-02-06T19:06:11.761Z,0.30
2019-02-06T19:08:39.904Z,0.30
2019-02-06T19:11:01.442Z,0.30
2019-02-06T19:13:24.077Z,0.20
2019-02-06T20:00:17.266Z,-0.30
2019-02-06T20:02:40.034Z,-0.30
2019-02-06T20:05:02.890Z,-0.40
2019-02-06T20:07:25.513Z,-0.40
2019-02-06T20:10:00.493Z,-0.40
2019-02-06T20:12:35.781Z,-0.40
2019-02-06T21:00:16.028Z,-0.80
2019-02-06T21:02:51.714Z,-0.80
2019-02-06T21:05:14.370Z,-0.80
2019-02-06T21:07:56.450Z,-0.80
2019-02-06T21:10:31.195Z,-0.80
2019-02-06T21:13:06.229Z,-0.80
